Time;durP1;ratioP1;P1;durP2;ratioP2;P2;SDS_P1;SDS_P2;PMS_P1;PMS_P2;Temp;Humidity;BMP_temperature;BMP_pressure;BME280_temperature;BME280_humidity;BME280_pressure;Samples;Min_cycle;Max_cycle;Signal;HPM_P1;HPM_P2
2022/06/08 00:00:18;;;;;;;2.47;2.27;;;17.80;99.90;;;;;;5013471;28;20517;-61
2022/06/08 00:02:52;;;;;;;1.93;1.73;;;17.80;99.90;;;;;;5013706;28;20442;-61
2022/06/08 00:05:20;;;;;;;3.17;2.60;;;17.80;99.90;;;;;;5013588;28;20439;-61
2022/06/08 00:07:47;;;;;;;2.80;1.73;;;17.70;99.90;;;;;;5014161;28;20926;-61
2022/06/08 00:10:14;;;;;;;2.30;2.10;;;17.40;99.90;;;;;;5017034;28;20482;-60
2022/06/08 00:12:41;;;;;;;2.20;2.00;;;17.60;99.90;;;;;;5017536;28;20505;-60
2022/06/08 00:15:10;;;;;;;2.83;2.03;;;17.70;99.90;;;;;;5017464;28;20447;-60
2022/06/08 00:17:38;;;;;;;2.00;1.80;;;17.70;99.90;;;;;;5017200;28;20453;-61
2022/06/08 00:20:09;;;;;;;2.60;2.40;;;17.70;99.90;;;;;;5016977;28;20605;-60
2022/06/08 00:22:37;;;;;;;3.07;2.30;;;17.70;99.90;;;;;;5017536;28;20431;-61
2022/06/08 00:25:05;;;;;;;2.40;2.20;;;17.50;99.90;;;;;;5017119;28;20473;-60
2022/06/08 00:27:33;;;;;;;2.40;1.80;;;17.70;99.90;;;;;;5017015;28;20543;-60
2022/06/08 00:30:00;;;;;;;1.70;1.60;;;17.80;99.90;;;;;;5017129;28;20499;-60
2022/06/08 00:32:28;;;;;;;1.90;1.70;;;17.60;99.90;;;;;;5016881;28;21001;-61
2022/06/08 00:34:55;;;;;;;2.50;2.30;;;17.40;99.90;;;;;;5017071;28;20519;-61
2022/06/08 00:37:24;;;;;;;3.93;1.77;;;17.30;99.90;;;;;;5017095;28;20525;-61
2022/06/08 00:39:51;;;;;;;2.20;2.00;;;17.40;99.90;;;;;;5016919;28;20491;-61
2022/06/08 00:42:19;;;;;;;3.67;2.53;;;17.30;99.90;;;;;;5016650;28;20541;-60
2022/06/08 00:44:50;;;;;;;2.90;2.23;;;17.40;99.90;;;;;;5016823;28;20806;-61
2022/06/08 00:47:19;;;;;;;4.37;2.53;;;17.40;99.90;;;;;;5016991;28;20439;-61
2022/06/08 00:49:52;;;;;;;2.03;1.90;;;17.20;99.90;;;;;;5016749;28;20553;-60
2022/06/08 00:52:19;;;;;;;3.40;2.50;;;17.90;99.90;;;;;;5016948;28;20435;-61
2022/06/08 00:54:52;;;;;;;5.73;2.97;;;17.80;99.90;;;;;;5016697;28;20457;-61
2022/06/08 00:57:26;;;;;;;3.17;2.17;;;17.60;99.90;;;;;;5016682;28;20450;-61
2022/06/08 00:59:57;;;;;;;2.57;1.93;;;18.20;99.90;;;;;;5016229;28;20493;-61
2022/06/08 01:02:24;;;;;;;3.30;3.00;;;17.70;99.90;;;;;;5016771;28;20431;-61
2022/06/08 01:04:51;;;;;;;2.33;2.13;;;17.20;99.90;;;;;;5016275;28;20996;-62
2022/06/08 01:07:21;;;;;;;2.70;1.97;;;17.00;99.90;;;;;;5016522;28;20454;-61
2022/06/08 01:09:50;;;;;;;3.83;2.43;;;17.10;99.90;;;;;;5016156;28;20482;-61
2022/06/08 01:12:22;;;;;;;2.33;2.13;;;17.00;99.90;;;;;;5016500;28;20530;-61
2022/06/08 01:14:50;;;;;;;2.37;2.17;;;17.10;99.90;;;;;;5016894;28;20439;-60
2022/06/08 01:17:19;;;;;;;6.13;2.13;;;17.20;99.90;;;;;;5016431;28;20451;-60
2022/06/08 01:19:49;;;;;;;4.83;2.27;;;17.00;99.90;;;;;;5016064;28;20823;-60
2022/06/08 01:22:20;;;;;;;2.57;2.37;;;16.80;99.90;;;;;;5016234;28;20442;-60
2022/06/08 01:24:50;;;;;;;2.60;2.40;;;16.70;99.90;;;;;;5016151;28;20432;-60
2022/06/08 01:27:32;;;;;;;2.73;2.50;;;17.00;99.90;;;;;;5015661;28;20816;-60
2022/06/08 01:30:14;;;;;;;3.10;2.27;;;17.20;99.90;;;;;;5015847;28;20554;-60
2022/06/08 01:33:11;;;;;;;2.63;2.43;;;17.20;99.90;;;;;;5016159;28;20438;-60
2022/06/08 01:35:47;;;;;;;4.87;2.43;;;17.30;99.90;;;;;;5016147;28;20440;-60
2022/06/08 01:38:22;;;;;;;2.50;2.30;;;17.30;99.90;;;;;;5015839;28;20759;-60
2022/06/08 01:41:16;;;;;;;2.93;2.30;;;17.00;99.90;;;;;;5015675;28;20969;-60
2022/06/08 01:43:58;;;;;;;2.83;2.20;;;17.20;99.90;;;;;;5015761;28;20412;-60
2022/06/08 01:46:27;;;;;;;2.57;2.37;;;17.20;99.90;;;;;;5015529;28;20435;-61
2022/06/08 01:49:09;;;;;;;2.63;2.43;;;17.20;99.90;;;;;;5015751;28;20473;-60
2022/06/08 01:51:51;;;;;;;3.47;2.87;;;16.80;99.90;;;;;;5015500;28;20899;-60
2022/06/08 01:54:29;;;;;;;2.67;2.27;;;16.60;99.90;;;;;;5015625;28;20482;-60
2022/06/08 01:57:09;;;;;;;7.23;2.50;;;16.50;99.90;;;;;;5015416;28;20447;-59
2022/06/08 01:59:47;;;;;;;2.60;2.40;;;16.70;99.90;;;;;;5015499;28;21028;-59
2022/06/08 02:02:23;;;;;;;2.80;2.60;;;16.70;99.90;;;;;;5015430;28;20497;-59
2022/06/08 02:04:56;;;;;;;2.60;2.40;;;16.70;99.90;;;;;;5015281;28;20771;-60
2022/06/08 02:07:34;;;;;;;3.10;2.70;;;16.60;99.90;;;;;;5015642;28;20530;-61
2022/06/08 02:10:10;;;;;;;3.23;2.93;;;16.80;99.90;;;;;;5014951;28;20486;-60
2022/06/08 02:12:42;;;;;;;2.60;2.40;;;16.60;99.90;;;;;;5015056;28;20450;-59
2022/06/08 02:15:14;;;;;;;3.30;2.70;;;16.60;99.90;;;;;;5015279;28;20530;-60
2022/06/08 02:17:46;;;;;;;4.10;2.63;;;16.60;99.90;;;;;;5015072;28;20431;-60
2022/06/08 02:20:17;;;;;;;4.80;2.90;;;16.70;99.90;;;;;;5014862;28;20554;-60
2022/06/08 02:22:48;;;;;;;2.60;2.40;;;16.40;99.90;;;;;;5015126;28;20438;-59
2022/06/08 02:25:21;;;;;;;7.43;2.90;;;16.40;99.90;;;;;;5014943;28;20439;-60
2022/06/08 02:27:55;;;;;;;2.67;2.40;;;16.30;99.90;;;;;;5014758;28;20969;-60
2022/06/08 02:30:26;;;;;;;3.03;2.73;;;16.30;99.90;;;;;;5014064;28;20546;-60
2022/06/08 02:35:47;;;;;;;2.57;2.37;;;16.30;99.90;;;;;;5014690;28;20410;-60
2022/06/08 02:38:18;;;;;;;2.53;2.30;;;16.30;99.90;;;;;;5014962;28;20487;-60
2022/06/08 02:40:50;;;;;;;3.03;2.83;;;16.90;99.90;;;;;;5014444;28;20471;-60
2022/06/08 02:43:22;;;;;;;2.50;2.30;;;17.50;99.90;;;;;;5014752;28;20432;-60
2022/06/08 02:45:57;;;;;;;2.90;2.60;;;17.70;99.90;;;;;;5014843;28;20466;-60
2022/06/08 02:48:24;;;;;;;2.77;2.30;;;17.40;99.90;;;;;;5014589;28;20771;-60
2022/06/08 02:50:53;;;;;;;2.47;2.27;;;16.90;99.90;;;;;;5014582;28;20529;-59
2022/06/08 02:53:58;;;;;;;2.60;2.13;;;16.70;99.90;;;;;;5014710;28;20455;-60
2022/06/08 02:56:36;;;;;;;2.77;2.57;;;16.70;99.90;;;;;;4973065;28;20496;-60
2022/06/08 02:59:08;;;;;;;3.87;2.47;;;16.40;99.90;;;;;;4973144;28;20559;-60
2022/06/08 03:01:40;;;;;;;4.13;2.30;;;16.10;99.90;;;;;;4996813;28;20487;-60
2022/06/08 03:04:11;;;;;;;3.90;2.83;;;15.90;99.90;;;;;;5014221;28;20856;-60
2022/06/08 03:06:44;;;;;;;3.10;2.00;;;16.30;99.90;;;;;;5014004;28;20443;-59
2022/06/08 03:09:14;;;;;;;3.73;2.37;;;16.70;99.90;;;;;;5014120;28;20482;-60
2022/06/08 03:11:46;;;;;;;2.63;2.43;;;17.00;99.90;;;;;;5014566;28;20441;-60
2022/06/08 03:14:17;;;;;;;2.40;2.20;;;17.50;99.90;;;;;;5014282;28;20435;-59
2022/06/08 03:16:54;;;;;;;2.93;2.13;;;17.50;99.90;;;;;;5014282;28;20516;-59
2022/06/08 03:19:22;;;;;;;2.70;2.50;;;17.50;99.90;;;;;;5014037;28;20473;-60
2022/06/08 03:21:49;;;;;;;2.67;2.47;;;17.80;99.90;;;;;;5014135;28;20479;-60
2022/06/08 03:24:18;;;;;;;5.90;3.43;;;18.00;99.90;;;;;;5014030;28;20545;-60
2022/06/08 03:26:51;;;;;;;4.13;2.40;;;17.70;99.90;;;;;;5013946;28;20451;-60
2022/06/08 03:29:18;;;;;;;2.50;2.30;;;17.20;99.90;;;;;;5013716;28;20566;-60
2022/06/08 03:31:46;;;;;;;7.80;2.37;;;17.10;99.90;;;;;;5014075;28;20439;-60
2022/06/08 03:34:16;;;;;;;3.47;2.57;;;16.90;99.90;;;;;;5013576;28;20466;-60
2022/06/08 03:36:43;;;;;;;4.80;2.37;;;17.00;99.90;;;;;;5013661;28;20522;-60
2022/06/08 03:39:11;;;;;;;3.77;3.27;;;16.70;99.90;;;;;;5013844;28;20479;-60
2022/06/08 03:41:39;;;;;;;3.80;2.47;;;16.50;99.90;;;;;;5013507;28;20488;-60
2022/06/08 03:44:07;;;;;;;2.73;2.20;;;16.40;99.90;;;;;;5013008;28;20450;-60
2022/06/08 03:46:38;;;;;;;3.23;2.50;;;16.30;99.90;;;;;;5013439;28;20941;-60
2022/06/08 03:49:07;;;;;;;4.97;2.90;;;16.30;99.90;;;;;;5013675;28;20562;-60
2022/06/08 03:51:35;;;;;;;6.33;3.50;;;16.20;99.90;;;;;;5013782;28;20447;-60
2022/06/08 03:54:06;;;;;;;2.67;2.20;;;16.80;99.90;;;;;;5013666;28;20502;-60
2022/06/08 03:56:35;;;;;;;2.83;2.37;;;17.10;99.90;;;;;;5013355;28;20534;-60
2022/06/08 03:59:03;;;;;;;3.30;2.57;;;16.70;99.90;;;;;;5013553;28;20467;-60
2022/06/08 04:01:32;;;;;;;3.00;2.43;;;16.50;99.90;;;;;;5013289;28;21084;-60
2022/06/08 04:03:59;;;;;;;3.53;2.43;;;16.50;99.90;;;;;;5013552;28;20542;-60
2022/06/08 04:06:27;;;;;;;4.13;2.50;;;16.60;99.90;;;;;;5013964;28;20455;-60
2022/06/08 04:08:54;;;;;;;2.87;2.40;;;16.40;99.90;;;;;;5013289;28;20529;-60
2022/06/08 04:11:21;;;;;;;7.90;2.80;;;16.70;99.90;;;;;;5013382;28;20898;-60
2022/06/08 04:13:48;;;;;;;3.40;3.10;;;16.40;99.90;;;;;;5013504;28;20447;-59
2022/06/08 04:16:16;;;;;;;3.40;2.50;;;16.30;99.90;;;;;;5013545;28;20534;-59
2022/06/08 04:18:45;;;;;;;3.30;2.50;;;16.60;99.90;;;;;;5013329;28;20467;-60
2022/06/08 04:21:14;;;;;;;3.67;2.60;;;16.50;99.90;;;;;;5013643;28;20573;-59
2022/06/08 04:23:43;;;;;;;3.10;2.77;;;16.70;99.90;;;;;;5013303;28;20447;-59
2022/06/08 04:26:12;;;;;;;2.90;2.70;;;16.50;99.90;;;;;;5013186;28;20545;-59
2022/06/08 04:28:39;;;;;;;3.10;2.80;;;16.20;99.90;;;;;;5013246;28;20554;-59
2022/06/08 04:31:06;;;;;;;4.90;2.90;;;16.10;99.90;;;;;;5013329;28;20453;-59
2022/06/08 04:33:34;;;;;;;4.63;2.93;;;15.90;99.90;;;;;;5013198;28;20447;-59
2022/06/08 04:36:04;;;;;;;4.47;2.93;;;15.90;99.90;;;;;;5013314;28;20538;-59
2022/06/08 04:38:31;;;;;;;3.47;3.17;;;15.90;99.90;;;;;;5012965;28;20489;-59
2022/06/08 04:40:59;;;;;;;6.97;3.00;;;15.80;99.90;;;;;;5013266;28;20446;-59
2022/06/08 04:43:26;;;;;;;3.30;3.00;;;15.90;99.90;;;;;;5012789;28;20950;-59
2022/06/08 04:45:53;;;;;;;3.17;2.67;;;15.90;99.90;;;;;;5013309;28;20530;-59
2022/06/08 04:48:21;;;;;;;2.80;2.60;;;15.90;99.90;;;;;;5013154;28;20546;-59
2022/06/08 04:50:49;;;;;;;6.40;2.53;;;16.00;99.90;;;;;;5013116;28;20447;-59
2022/06/08 04:53:18;;;;;;;3.53;2.40;;;15.90;99.90;;;;;;5012868;28;20458;-59
2022/06/08 04:55:45;;;;;;;2.67;2.40;;;16.20;99.90;;;;;;5023255;28;20453;-59
2022/06/08 04:58:12;;;;;;;2.30;2.10;;;16.80;99.90;;;;;;5036288;28;20999;-60
2022/06/08 05:00:40;;;;;;;4.03;2.70;;;17.30;99.90;;;;;;5036190;28;20466;-60
2022/06/08 05:03:07;;;;;;;4.90;2.57;;;16.50;99.90;;;;;;5036281;28;20493;-59
2022/06/08 05:05:36;;;;;;;4.13;3.73;;;16.10;99.90;;;;;;5036316;28;20532;-61
2022/06/08 05:08:05;;;;;;;4.07;2.73;;;16.30;99.90;;;;;;5036373;28;20484;-59
2022/06/08 05:10:36;;;;;;;6.70;2.33;;;16.00;99.90;;;;;;5035582;28;20576;-59
2022/06/08 05:13:04;;;;;;;4.83;3.03;;;16.10;99.90;;;;;;5035873;28;20450;-59
2022/06/08 05:15:33;;;;;;;4.03;2.77;;;15.80;99.90;;;;;;5035807;28;20804;-59
2022/06/08 05:18:01;;;;;;;6.60;2.97;;;16.10;99.90;;;;;;5036129;28;20477;-59
2022/06/08 05:20:29;;;;;;;3.03;2.50;;;16.20;99.90;;;;;;5035556;28;20469;-59
2022/06/08 05:22:57;;;;;;;4.47;2.70;;;16.20;99.90;;;;;;5035929;28;20486;-59
2022/06/08 05:25:28;;;;;;;3.83;2.60;;;16.20;99.90;;;;;;5035596;28;20449;-59
2022/06/08 05:27:57;;;;;;;6.80;2.50;;;16.20;99.90;;;;;;5035917;28;20462;-59
2022/06/08 05:30:26;;;;;;;3.10;2.60;;;16.30;99.90;;;;;;5035294;28;20477;-60
2022/06/08 05:32:53;;;;;;;2.90;2.60;;;16.20;99.90;;;;;;5035550;28;20925;-60
2022/06/08 05:35:22;;;;;;;2.93;2.40;;;16.20;99.90;;;;;;5035676;28;20477;-60
2022/06/08 05:37:49;;;;;;;2.50;2.30;;;16.20;99.90;;;;;;5035555;28;20466;-60
2022/06/08 05:40:16;;;;;;;3.13;2.17;;;16.40;99.90;;;;;;5035400;28;20498;-59
2022/06/08 05:42:44;;;;;;;2.63;2.20;;;16.40;99.90;;;;;;5035704;28;20569;-60
2022/06/08 05:45:18;;;;;;;3.57;2.43;;;16.70;99.90;;;;;;5034916;28;20486;-59
2022/06/08 05:47:46;;;;;;;3.93;2.60;;;16.70;99.90;;;;;;5035342;28;20492;-60
2022/06/08 05:50:13;;;;;;;6.23;2.20;;;16.70;99.90;;;;;;5035022;28;20520;-60
2022/06/08 05:52:40;;;;;;;3.63;2.53;;;16.80;99.90;;;;;;5035360;28;20521;-60
2022/06/08 05:55:09;;;;;;;4.10;2.97;;;16.80;99.90;;;;;;5035048;28;20455;-60
2022/06/08 05:57:37;;;;;;;7.90;2.93;;;16.90;99.90;;;;;;5034929;28;20450;-60
2022/06/08 06:00:06;;;;;;;3.00;2.60;;;16.90;99.90;;;;;;5035125;28;20474;-59
2022/06/08 06:02:35;;;;;;;9.40;2.50;;;17.30;99.90;;;;;;5034737;28;20484;-59
2022/06/08 06:05:02;;;;;;;5.30;2.43;;;17.10;99.90;;;;;;5034405;28;20461;-59
2022/06/08 06:07:29;;;;;;;7.63;2.30;;;17.10;99.90;;;;;;5034799;28;20500;-60
2022/06/08 06:10:02;;;;;;;6.17;3.00;;;17.50;99.90;;;;;;5034385;28;20486;-60
2022/06/08 06:12:29;;;;;;;6.90;2.73;;;17.60;99.90;;;;;;5034552;28;20494;-60
2022/06/08 06:14:57;;;;;;;3.90;2.63;;;17.80;99.90;;;;;;5034682;28;20450;-59
2022/06/08 06:17:24;;;;;;;9.17;2.53;;;18.10;99.90;;;;;;5034884;28;20442;-60
2022/06/08 06:19:53;;;;;;;9.67;4.13;;;17.70;99.90;;;;;;5034743;28;20482;-60
2022/06/08 06:22:20;;;;;;;2.30;2.10;;;17.80;99.90;;;;;;5034450;28;20518;-59
2022/06/08 06:24:47;;;;;;;4.23;2.50;;;17.90;99.90;;;;;;5034299;28;20450;-59
2022/06/08 06:27:15;;;;;;;2.70;2.40;;;17.80;99.90;;;;;;5034259;28;20513;-60
2022/06/08 06:29:42;;;;;;;7.47;2.80;;;17.90;99.90;;;;;;5034291;28;20494;-60
2022/06/08 06:32:16;;;;;;;7.13;2.80;;;17.80;99.90;;;;;;5034585;28;20539;-59
2022/06/08 06:34:44;;;;;;;9.00;2.53;;;17.70;99.90;;;;;;5034412;28;20422;-59
2022/06/08 06:37:13;;;;;;;2.70;2.23;;;17.70;99.90;;;;;;5034113;28;20869;-60
2022/06/08 06:39:40;;;;;;;7.40;2.40;;;17.70;99.90;;;;;;5034232;28;20564;-60
2022/06/08 06:42:12;;;;;;;3.50;2.93;;;18.00;99.90;;;;;;5034162;28;20569;-60
2022/06/08 06:44:39;;;;;;;6.73;2.27;;;18.20;99.90;;;;;;5034049;28;20492;-59
2022/06/08 06:47:07;;;;;;;4.20;2.20;;;18.20;99.90;;;;;;5034205;28;20822;-60
2022/06/08 06:49:34;;;;;;;6.40;2.30;;;18.20;99.90;;;;;;5033686;28;20969;-60
2022/06/08 06:52:01;;;;;;;3.00;2.43;;;18.10;99.90;;;;;;5033883;28;20442;-59
2022/06/08 06:54:31;;;;;;;4.07;2.93;;;18.10;99.90;;;;;;5034049;28;20442;-60
2022/06/08 06:56:58;;;;;;;2.47;2.00;;;18.20;99.90;;;;;;5017716;28;20454;-61
2022/06/08 06:59:25;;;;;;;2.97;2.33;;;18.60;99.90;;;;;;5013876;28;21041;-60
2022/06/08 07:01:53;;;;;;;5.10;2.30;;;18.80;99.90;;;;;;5013877;28;20490;-61
2022/06/08 07:04:20;;;;;;;3.33;2.27;;;19.20;99.90;;;;;;5013823;28;21012;-61
2022/06/08 07:06:47;;;;;;;5.77;2.30;;;19.40;99.90;;;;;;5013811;28;20450;-61
2022/06/08 07:09:14;;;;;;;8.13;2.20;;;19.20;99.90;;;;;;5013583;28;21057;-61
2022/06/08 07:11:43;;;;;;;6.90;3.10;;;18.90;99.90;;;;;;5013702;28;20984;-61
2022/06/08 07:14:15;;;;;;;7.83;2.73;;;18.70;99.90;;;;;;5013778;28;20534;-61
2022/06/08 07:16:45;;;;;;;3.53;2.37;;;18.60;99.90;;;;;;5013844;28;20432;-61
2022/06/08 07:19:12;;;;;;;3.43;2.33;;;18.80;99.90;;;;;;5013659;28;20533;-60
2022/06/08 07:21:40;;;;;;;2.97;2.30;;;19.20;99.90;;;;;;5013499;28;20455;-60
2022/06/08 07:24:08;;;;;;;5.30;2.33;;;19.60;99.90;;;;;;5013544;28;20455;-61
2022/06/08 07:26:35;;;;;;;2.37;2.10;;;20.00;99.90;;;;;;5026624;28;20529;-61
2022/06/08 07:29:05;;;;;;;5.73;2.70;;;19.80;99.90;;;;;;5033466;28;20562;-61
2022/06/08 07:31:32;;;;;;;2.33;2.13;;;20.20;99.90;;;;;;5033514;28;20569;-61
2022/06/08 07:34:00;;;;;;;2.23;2.00;;;20.30;99.90;;;;;;5033082;28;21003;-61
2022/06/08 07:36:27;;;;;;;7.70;2.63;;;20.70;99.90;;;;;;5033221;28;20457;-61
2022/06/08 07:38:56;;;;;;;3.63;2.50;;;20.80;99.90;;;;;;5033450;28;20540;-61
2022/06/08 07:41:24;;;;;;;4.53;1.80;;;21.60;99.90;;;;;;5033450;28;20604;-61
2022/06/08 07:43:51;;;;;;;2.60;2.10;;;21.30;99.90;;;;;;5033142;28;20881;-61
2022/06/08 07:46:20;;;;;;;2.90;2.27;;;21.10;99.90;;;;;;5033092;28;20957;-60
2022/06/08 07:51:32;;;;;;;3.53;2.00;;;21.60;99.90;;;;;;5033254;28;20406;-60
2022/06/08 07:54:00;;;;;;;4.50;2.33;;;22.30;99.90;;;;;;5033161;28;20500;-60
2022/06/08 07:56:28;;;;;;;3.97;2.40;;;23.80;99.90;;;;;;5033168;28;20505;-61
2022/06/08 07:58:55;;;;;;;3.33;1.80;;;23.40;99.90;;;;;;5033170;28;20520;-61
2022/06/08 08:01:24;;;;;;;2.40;1.80;;;23.00;99.90;;;;;;5033058;28;20789;-61
2022/06/08 08:03:51;;;;;;;3.20;2.00;;;23.50;99.90;;;;;;5032715;28;20568;-61
2022/06/08 08:06:18;;;;;;;5.03;2.13;;;23.70;99.90;;;;;;5032899;28;20456;-61
2022/06/08 08:08:45;;;;;;;4.10;2.30;;;23.10;99.90;;;;;;5032933;28;20509;-61
2022/06/08 08:11:12;;;;;;;2.50;1.70;;;23.60;99.90;;;;;;5033029;28;20426;-61
2022/06/08 08:13:40;;;;;;;2.33;1.97;;;24.00;99.90;;;;;;5032544;28;20537;-60
2022/06/08 08:16:08;;;;;;;2.43;2.10;;;24.00;99.90;;;;;;5032720;28;20446;-61
2022/06/08 08:18:36;;;;;;;5.63;2.50;;;24.90;99.90;;;;;;5032955;28;20927;-60
2022/06/08 08:21:04;;;;;;;1.80;1.70;;;25.40;99.50;;;;;;5033138;28;20890;-61
2022/06/08 08:23:31;;;;;;;5.43;1.87;;;24.60;98.80;;;;;;5032875;28;20565;-61
2022/06/08 08:25:58;;;;;;;2.70;2.23;;;24.60;99.00;;;;;;5032933;28;20481;-60
2022/06/08 08:28:25;;;;;;;3.23;2.07;;;25.80;99.10;;;;;;5033120;28;20807;-61
2022/06/08 08:30:52;;;;;;;3.87;2.17;;;25.70;97.10;;;;;;5036657;28;20485;-61
2022/06/08 08:33:21;;;;;;;2.03;1.60;;;25.70;96.70;;;;;;5036881;28;20481;-61
2022/06/08 08:35:52;;;;;;;5.47;2.20;;;25.50;96.90;;;;;;5036435;28;20537;-61
2022/06/08 08:38:21;;;;;;;5.97;2.27;;;24.80;96.00;;;;;;5036539;28;20951;-61
2022/06/08 08:40:52;;;;;;;3.00;2.70;;;24.80;96.50;;;;;;5036514;28;20492;-61
2022/06/08 08:43:23;;;;;;;2.97;1.70;;;25.10;96.20;;;;;;5036323;28;20469;-61
2022/06/08 08:46:12;;;;;;;3.83;1.80;;;25.00;95.40;;;;;;5036297;28;20521;-60
2022/06/08 08:48:44;;;;;;;3.20;1.90;;;24.80;94.40;;;;;;5036273;28;20469;-61
2022/06/08 08:51:19;;;;;;;6.53;2.10;;;24.60;94.80;;;;;;5036209;28;20434;-61
2022/06/08 08:54:03;;;;;;;6.33;1.80;;;24.60;95.00;;;;;;5036310;28;20454;-61
2022/06/08 08:56:35;;;;;;;2.80;1.97;;;24.90;94.60;;;;;;5035896;28;20446;-61
2022/06/08 08:59:05;;;;;;;2.50;1.50;;;25.30;94.70;;;;;;5036192;28;20474;-61
2022/06/08 09:01:35;;;;;;;2.50;2.13;;;25.50;94.20;;;;;;5036002;28;20536;-59
2022/06/08 09:04:11;;;;;;;4.10;1.73;;;25.40;92.60;;;;;;5036308;28;20571;-60
2022/06/08 09:06:41;;;;;;;1.77;1.40;;;26.10;93.60;;;;;;5036366;28;20444;-61
2022/06/08 09:09:14;;;;;;;3.10;1.90;;;26.20;92.00;;;;;;5034744;28;20533;-61
2022/06/08 09:11:44;;;;;;;6.37;1.90;;;26.00;92.10;;;;;;5036290;28;20536;-61
2022/06/08 09:14:16;;;;;;;2.57;1.57;;;24.50;94.30;;;;;;5035856;28;21053;-60
2022/06/08 09:16:45;;;;;;;3.40;1.80;;;24.20;93.40;;;;;;5035923;28;20525;-61
2022/06/08 09:19:32;;;;;;;6.43;2.63;;;25.00;94.40;;;;;;5035475;28;20470;-60
2022/06/08 09:22:24;;;;;;;5.33;2.00;;;25.10;94.70;;;;;;5030742;28;20901;-60
2022/06/08 09:24:54;;;;;;;6.20;2.07;;;25.40;93.70;;;;;;5025923;28;20454;-61
2022/06/08 09:27:24;;;;;;;4.90;2.10;;;26.10;93.30;;;;;;5033787;28;20462;-61
2022/06/08 09:29:57;;;;;;;2.17;1.97;;;26.20;92.30;;;;;;5035312;28;20477;-61
2022/06/08 09:32:29;;;;;;;3.03;1.83;;;;;;;;;;5035365;28;20522;-63
2022/06/08 09:34:58;;;;;;;2.60;2.33;;;26.90;90.30;;;;;;5020430;28;20546;-61
2022/06/08 09:37:28;;;;;;;4.23;2.20;;;26.30;90.10;;;;;;5025243;28;20538;-61
2022/06/08 09:39:58;;;;;;;8.23;2.10;;;27.10;90.30;;;;;;5032677;28;20532;-62
2022/06/08 09:42:46;;;;;;;2.40;2.03;;;26.60;90.40;;;;;;5035803;28;20450;-61
2022/06/08 09:45:30;;;;;;;4.00;1.70;;;26.40;90.00;;;;;;5034648;28;20426;-61
2022/06/08 09:53:58;;;;;;;2.40;1.70;;;25.80;85.50;;;;;;5035009;28;20406;-61
2022/06/08 09:56:34;;;;;;;1.73;1.37;;;27.20;86.40;;;;;;5035220;28;20449;-61
2022/06/08 09:59:14;;;;;;;2.97;1.63;;;26.60;83.10;;;;;;5034823;28;20972;-61
2022/06/08 10:01:46;;;;;;;1.90;1.40;;;26.60;85.40;;;;;;5034881;28;20407;-61
2022/06/08 10:04:37;;;;;;;1.77;1.60;;;26.80;86.90;;;;;;5034652;28;20561;-61
2022/06/08 10:07:14;;;;;;;2.33;1.53;;;27.40;86.40;;;;;;5034840;28;20446;-61
2022/06/08 10:09:56;;;;;;;2.30;1.70;;;26.60;84.90;;;;;;5034370;28;20485;-61
2022/06/08 10:12:37;;;;;;;3.07;1.83;;;25.50;80.20;;;;;;5035079;28;20427;-61
2022/06/08 10:15:14;;;;;;;2.83;1.87;;;24.60;82.60;;;;;;5035149;28;20546;-61
2022/06/08 10:17:48;;;;;;;3.50;1.77;;;24.60;81.70;;;;;;5034578;28;20435;-60
2022/06/08 10:20:19;;;;;;;4.67;1.70;;;24.80;81.60;;;;;;5034600;28;20971;-61
2022/06/08 10:22:51;;;;;;;8.90;2.40;;;24.80;82.40;;;;;;5034615;28;20549;-60
2022/06/08 10:25:23;;;;;;;2.60;1.87;;;25.00;81.90;;;;;;5031884;28;20510;-61
2022/06/08 10:27:55;;;;;;;4.10;1.70;;;24.90;83.60;;;;;;5014795;28;20467;-61
2022/06/08 10:30:29;;;;;;;1.90;1.50;;;24.60;81.50;;;;;;5014691;28;20502;-60
2022/06/08 10:33:01;;;;;;;2.07;1.40;;;25.00;84.70;;;;;;5014978;28;20423;-60
2022/06/08 10:35:35;;;;;;;3.83;1.60;;;25.40;82.00;;;;;;5014713;28;20435;-61
2022/06/08 10:38:04;;;;;;;3.53;1.67;;;25.90;80.60;;;;;;5014701;28;20459;-61
2022/06/08 10:40:48;;;;;;;1.93;1.60;;;25.70;80.90;;;;;;5014319;28;21021;-61
2022/06/08 10:43:21;;;;;;;3.00;1.67;;;25.90;81.60;;;;;;5014279;28;20495;-61
2022/06/08 10:45:54;;;;;;;3.93;1.90;;;;;;;;;;5014068;28;20963;-61
2022/06/08 10:48:43;;;;;;;3.40;1.50;;;28.10;81.70;;;;;;5014163;28;20441;-61
2022/06/08 10:51:39;;;;;;;2.67;1.73;;;28.80;78.40;;;;;;5013809;28;20522;-61
2022/06/08 10:57:44;;;;;;;1.37;1.27;;;27.80;73.20;;;;;;5033154;28;21002;-62
2022/06/08 11:00:52;;;;;;;1.90;1.50;;;27.60;70.10;;;;;;5033658;28;20999;-62
2022/06/08 11:03:38;;;;;;;2.53;1.73;;;28.20;72.00;;;;;;5025824;28;20563;-62
2022/06/08 11:06:10;;;;;;;2.40;1.60;;;27.70;71.20;;;;;;5033651;28;20488;-62
2022/06/08 11:08:51;;;;;;;2.33;1.70;;;28.20;70.80;;;;;;5033989;28;20516;-62
2022/06/08 11:11:41;;;;;;;1.67;1.30;;;27.50;72.30;;;;;;5033877;28;20441;-62
2022/06/08 11:14:31;;;;;;;2.80;1.20;;;26.90;67.30;;;;;;5033832;28;20431;-61
2022/06/08 11:17:03;;;;;;;3.87;1.60;;;27.50;68.80;;;;;;5033634;28;20426;-62
2022/06/08 11:19:33;;;;;;;2.63;1.47;;;27.60;72.50;;;;;;5033776;28;20477;-62
2022/06/08 11:22:05;;;;;;;3.50;1.63;;;27.60;71.20;;;;;;5033663;28;20459;-61
2022/06/08 11:24:37;;;;;;;3.77;1.97;;;26.80;67.30;;;;;;5033678;28;20478;-61
2022/06/08 11:27:30;;;;;;;4.30;1.73;;;27.10;66.20;;;;;;5033471;28;20442;-62
2022/06/08 11:30:00;;;;;;;4.27;2.93;;;26.10;65.10;;;;;;5033566;28;20468;-62
2022/06/08 11:32:57;;;;;;;2.20;1.60;;;26.00;65.70;;;;;;5033453;28;20840;-62
2022/06/08 11:36:06;;;;;;;3.20;1.50;;;26.30;65.70;;;;;;5033650;28;20431;-61
2022/06/08 11:38:54;;;;;;;2.03;1.67;;;26.00;66.70;;;;;;5033470;28;20458;-62
2022/06/08 11:41:30;;;;;;;3.23;1.60;;;26.10;68.70;;;;;;5033254;28;20488;-62
2022/06/08 11:44:03;;;;;;;2.50;1.60;;;25.70;66.80;;;;;;5033307;28;20476;-62
2022/06/08 11:46:38;;;;;;;5.40;2.00;;;25.60;68.80;;;;;;5033083;28;20438;-62
2022/06/08 11:49:08;;;;;;;2.00;1.70;;;25.30;66.60;;;;;;5033493;28;20803;-61
2022/06/08 11:51:38;;;;;;;2.40;1.57;;;24.80;68.20;;;;;;5033180;28;20434;-61
2022/06/08 11:54:25;;;;;;;4.50;1.80;;;24.40;69.70;;;;;;5033125;28;20442;-61
2022/06/08 11:57:04;;;;;;;3.10;1.67;;;24.40;68.80;;;;;;5032556;28;20537;-61
2022/06/08 11:59:36;;;;;;;1.83;1.60;;;25.00;68.30;;;;;;5033279;28;20555;-61
2022/06/08 12:02:18;;;;;;;1.83;1.60;;;25.90;70.40;;;;;;5033323;28;20427;-62
2022/06/08 12:04:49;;;;;;;2.43;1.80;;;25.90;67.70;;;;;;5035460;28;20553;-61
2022/06/08 12:07:43;;;;;;;4.27;1.37;;;26.00;66.50;;;;;;5037152;28;20438;-61
2022/06/08 12:10:14;;;;;;;2.10;1.57;;;25.60;70.00;;;;;;5037038;28;20485;-61
2022/06/08 12:12:44;;;;;;;3.13;1.80;;;25.90;69.80;;;;;;5037319;28;20434;-61
2022/06/08 12:15:35;;;;;;;2.37;1.90;;;26.70;65.70;;;;;;5036930;28;20445;-62
2022/06/08 12:18:41;;;;;;;3.47;1.73;;;25.90;67.40;;;;;;5033303;28;20450;-61
2022/06/08 12:21:25;;;;;;;1.77;1.60;;;26.00;66.90;;;;;;5037252;28;20446;-61
2022/06/08 12:24:24;;;;;;;2.33;1.43;;;26.00;67.40;;;;;;5034412;28;20513;-62
2022/06/08 12:27:19;;;;;;;4.80;1.70;;;25.90;64.90;;;;;;5036880;28;20845;-61
2022/06/08 12:29:54;;;;;;;2.27;1.40;;;25.70;64.20;;;;;;5031801;28;20513;-61
2022/06/08 12:32:30;;;;;;;2.27;1.70;;;25.60;65.80;;;;;;5036645;28;20470;-61
2022/06/08 12:35:28;;;;;;;1.70;1.53;;;25.30;64.70;;;;;;5036933;28;20426;-61
2022/06/08 12:38:20;;;;;;;1.60;1.43;;;25.10;66.30;;;;;;5036641;28;20815;-61
2022/06/08 12:41:10;;;;;;;2.10;1.60;;;24.90;64.30;;;;;;5036482;28;20859;-61
2022/06/08 12:43:41;;;;;;;2.50;1.53;;;24.90;64.70;;;;;;5032690;28;20489;-61
2022/06/08 12:46:28;;;;;;;3.50;2.03;;;25.00;64.40;;;;;;5036219;28;20434;-61
2022/06/08 12:49:02;;;;;;;1.53;1.40;;;24.80;66.30;;;;;;5036400;28;20472;-61
2022/06/08 12:51:40;;;;;;;2.73;1.67;;;25.20;65.50;;;;;;5036241;28;20445;-61
2022/06/08 12:54:18;;;;;;;1.77;1.50;;;25.30;64.90;;;;;;5036164;28;20889;-61
2022/06/08 12:56:47;;;;;;;3.73;1.50;;;25.30;67.70;;;;;;5036484;28;20509;-61
2022/06/08 12:59:15;;;;;;;1.87;1.63;;;25.30;65.20;;;;;;5036009;28;20470;-61
2022/06/08 13:01:44;;;;;;;1.60;1.50;;;25.00;65.60;;;;;;5036437;28;20532;-61
2022/06/08 13:04:13;;;;;;;3.20;1.67;;;25.00;65.20;;;;;;5036155;28;20555;-61
2022/06/08 13:06:42;;;;;;;2.50;1.63;;;25.00;65.10;;;;;;5036406;28;20835;-61
2022/06/08 13:09:13;;;;;;;2.40;1.53;;;25.30;65.20;;;;;;5035907;28;20493;-61
2022/06/08 13:11:44;;;;;;;2.20;1.60;;;25.00;64.90;;;;;;5036340;28;20796;-61
2022/06/08 13:14:17;;;;;;;1.30;1.20;;;24.70;67.00;;;;;;5035742;28;20458;-61
2022/06/08 13:16:45;;;;;;;2.90;1.47;;;24.80;67.30;;;;;;5036054;28;20510;-61
2022/06/08 13:19:13;;;;;;;2.20;1.70;;;24.70;64.80;;;;;;5035469;28;20466;-61
2022/06/08 13:21:42;;;;;;;2.63;2.43;;;24.40;65.30;;;;;;5036018;28;20815;-61
2022/06/08 13:24:11;;;;;;;1.90;1.50;;;24.50;65.50;;;;;;5035677;28;20577;-61
2022/06/08 13:26:40;;;;;;;1.50;1.40;;;24.70;67.60;;;;;;5035559;28;20964;-61
2022/06/08 13:29:08;;;;;;;2.97;1.80;;;24.60;67.00;;;;;;5035360;28;20481;-61